sensor_id;sensor_type;location;lat;lon;timestamp;P1;durP1;ratioP1;P2;durP2;ratioP2
57832;SDS011;43667;53.036;6.740;2022-08-05T00:01:12;9.40;;;3.80;;
57832;SDS011;43667;53.036;6.740;2022-08-05T00:03:42;8.40;;;3.83;;
57832;SDS011;43667;53.036;6.740;2022-08-05T00:06:08;6.70;;;3.38;;
57832;SDS011;43667;53.036;6.740;2022-08-05T00:08:34;9.23;;;3.65;;
57832;SDS011;43667;53.036;6.740;2022-08-05T00:11:02;8.02;;;3.63;;
57832;SDS011;43667;53.036;6.740;2022-08-05T00:13:31;7.63;;;3.03;;
57832;SDS011;43667;53.036;6.740;2022-08-05T00:16:00;7.20;;;3.50;;
57832;SDS011;43667;53.036;6.740;2022-08-05T00:18:26;8.75;;;3.55;;
57832;SDS011;43667;53.036;6.740;2022-08-05T00:20:52;9.18;;;3.00;;
57832;SDS011;43667;53.036;6.740;2022-08-05T00:23:19;6.38;;;2.53;;
57832;SDS011;43667;53.036;6.740;2022-08-05T00:25:46;7.28;;;2.90;;
57832;SDS011;43667;53.036;6.740;2022-08-05T00:28:12;9.05;;;3.30;;
57832;SDS011;43667;53.036;6.740;2022-08-05T00:30:39;6.50;;;2.97;;
57832;SDS011;43667;53.036;6.740;2022-08-05T00:33:05;7.57;;;2.58;;
57832;SDS011;43667;53.036;6.740;2022-08-05T00:35:30;7.43;;;2.42;;
57832;SDS011;43667;53.036;6.740;2022-08-05T00:37:56;7.65;;;2.60;;
57832;SDS011;43667;53.036;6.740;2022-08-05T00:40:22;8.95;;;3.28;;
57832;SDS011;43667;53.036;6.740;2022-08-05T00:42:49;7.35;;;2.50;;
57832;SDS011;43667;53.036;6.740;2022-08-05T00:45:14;8.65;;;2.80;;
57832;SDS011;43667;53.036;6.740;2022-08-05T00:47:40;7.35;;;2.60;;
57832;SDS011;43667;53.036;6.740;2022-08-05T00:50:07;7.18;;;2.17;;
57832;SDS011;43667;53.036;6.740;2022-08-05T00:52:33;5.68;;;2.10;;
57832;SDS011;43667;53.036;6.740;2022-08-05T00:54:59;9.93;;;2.33;;
57832;SDS011;43667;53.036;6.740;2022-08-05T00:57:24;5.45;;;1.85;;
57832;SDS011;43667;53.036;6.740;2022-08-05T00:59:50;6.82;;;2.22;;
57832;SDS011;43667;53.036;6.740;2022-08-05T01:02:16;6.35;;;2.00;;
57832;SDS011;43667;53.036;6.740;2022-08-05T01:04:42;12.80;;;1.92;;
57832;SDS011;43667;53.036;6.740;2022-08-05T01:07:08;5.78;;;1.83;;
57832;SDS011;43667;53.036;6.740;2022-08-05T01:09:34;5.05;;;1.38;;
57832;SDS011;43667;53.036;6.740;2022-08-05T01:12:05;5.05;;;1.60;;
57832;SDS011;43667;53.036;6.740;2022-08-05T01:14:34;6.38;;;1.40;;
57832;SDS011;43667;53.036;6.740;2022-08-05T01:20:27;4.93;;;1.30;;
57832;SDS011;43667;53.036;6.740;2022-08-05T01:28:35;7.60;;;1.48;;
57832;SDS011;43667;53.036;6.740;2022-08-05T01:36:43;7.35;;;1.70;;
57832;SDS011;43667;53.036;6.740;2022-08-05T01:39:13;6.43;;;1.52;;
57832;SDS011;43667;53.036;6.740;2022-08-05T01:41:40;5.30;;;1.83;;
57832;SDS011;43667;53.036;6.740;2022-08-05T01:44:09;8.48;;;1.40;;
57832;SDS011;43667;53.036;6.740;2022-08-05T01:46:37;5.68;;;1.45;;
57832;SDS011;43667;53.036;6.740;2022-08-05T01:49:04;3.95;;;1.60;;
57832;SDS011;43667;53.036;6.740;2022-08-05T01:51:32;4.50;;;1.55;;
57832;SDS011;43667;53.036;6.740;2022-08-05T01:54:04;5.30;;;1.92;;
57832;SDS011;43667;53.036;6.740;2022-08-05T01:56:36;5.57;;;1.77;;
57832;SDS011;43667;53.036;6.740;2022-08-05T01:59:05;8.48;;;1.85;;
57832;SDS011;43667;53.036;6.740;2022-08-05T02:01:34;9.52;;;1.73;;
57832;SDS011;43667;53.036;6.740;2022-08-05T02:04:02;6.13;;;1.58;;
57832;SDS011;43667;53.036;6.740;2022-08-05T02:06:29;6.55;;;1.60;;
57832;SDS011;43667;53.036;6.740;2022-08-05T02:08:55;4.57;;;1.60;;
57832;SDS011;43667;53.036;6.740;2022-08-05T02:11:21;7.47;;;1.63;;
57832;SDS011;43667;53.036;6.740;2022-08-05T02:13:52;7.88;;;1.67;;
57832;SDS011;43667;53.036;6.740;2022-08-05T02:16:51;5.00;;;2.00;;
57832;SDS011;43667;53.036;6.740;2022-08-05T02:19:23;6.15;;;1.55;;
57832;SDS011;43667;53.036;6.740;2022-08-05T02:27:41;4.65;;;2.00;;
57832;SDS011;43667;53.036;6.740;2022-08-05T02:30:13;6.85;;;1.60;;
57832;SDS011;43667;53.036;6.740;2022-08-05T02:32:42;5.97;;;1.77;;
57832;SDS011;43667;53.036;6.740;2022-08-05T02:35:16;4.60;;;1.80;;
57832;SDS011;43667;53.036;6.740;2022-08-05T02:37:45;4.60;;;1.45;;
57832;SDS011;43667;53.036;6.740;2022-08-05T02:40:12;6.63;;;1.77;;
57832;SDS011;43667;53.036;6.740;2022-08-05T02:42:40;7.13;;;1.52;;
57832;SDS011;43667;53.036;6.740;2022-08-05T02:45:07;4.60;;;1.63;;
57832;SDS011;43667;53.036;6.740;2022-08-05T02:47:35;6.47;;;1.77;;
57832;SDS011;43667;53.036;6.740;2022-08-05T02:50:02;5.65;;;1.67;;
57832;SDS011;43667;53.036;6.740;2022-08-05T02:52:30;4.13;;;1.50;;
57832;SDS011;43667;53.036;6.740;2022-08-05T02:55:01;4.82;;;1.40;;
57832;SDS011;43667;53.036;6.740;2022-08-05T02:57:29;4.68;;;1.45;;
57832;SDS011;43667;53.036;6.740;2022-08-05T02:59:56;3.47;;;1.25;;
57832;SDS011;43667;53.036;6.740;2022-08-05T03:02:23;6.88;;;1.70;;
57832;SDS011;43667;53.036;6.740;2022-08-05T03:04:53;5.13;;;1.65;;
57832;SDS011;43667;53.036;6.740;2022-08-05T03:07:21;4.70;;;1.75;;
57832;SDS011;43667;53.036;6.740;2022-08-05T03:09:48;6.65;;;1.70;;
57832;SDS011;43667;53.036;6.740;2022-08-05T03:12:33;6.75;;;1.77;;
57832;SDS011;43667;53.036;6.740;2022-08-05T03:15:04;4.38;;;1.38;;
57832;SDS011;43667;53.036;6.740;2022-08-05T03:17:31;7.63;;;1.83;;
57832;SDS011;43667;53.036;6.740;2022-08-05T03:19:57;5.65;;;1.52;;
57832;SDS011;43667;53.036;6.740;2022-08-05T03:22:23;6.25;;;1.58;;
57832;SDS011;43667;53.036;6.740;2022-08-05T03:24:49;6.63;;;2.13;;
57832;SDS011;43667;53.036;6.740;2022-08-05T03:27:16;6.70;;;1.58;;
57832;SDS011;43667;53.036;6.740;2022-08-05T03:29:42;5.80;;;1.80;;
57832;SDS011;43667;53.036;6.740;2022-08-05T03:32:08;6.38;;;1.65;;
57832;SDS011;43667;53.036;6.740;2022-08-05T03:34:34;4.85;;;1.70;;
57832;SDS011;43667;53.036;6.740;2022-08-05T03:37:01;7.07;;;1.75;;
57832;SDS011;43667;53.036;6.740;2022-08-05T03:39:29;5.50;;;1.80;;
57832;SDS011;43667;53.036;6.740;2022-08-05T03:41:55;4.20;;;1.95;;
57832;SDS011;43667;53.036;6.740;2022-08-05T03:44:21;4.50;;;1.52;;
57832;SDS011;43667;53.036;6.740;2022-08-05T03:46:46;7.03;;;1.90;;
57832;SDS011;43667;53.036;6.740;2022-08-05T03:49:12;7.72;;;1.77;;
57832;SDS011;43667;53.036;6.740;2022-08-05T03:51:40;5.30;;;1.88;;
57832;SDS011;43667;53.036;6.740;2022-08-05T03:56:55;6.28;;;1.58;;
57832;SDS011;43667;53.036;6.740;2022-08-05T03:59:23;5.97;;;1.58;;
57832;SDS011;43667;53.036;6.740;2022-08-05T04:01:54;6.27;;;1.77;;
57832;SDS011;43667;53.036;6.740;2022-08-05T04:04:21;6.20;;;2.00;;
57832;SDS011;43667;53.036;6.740;2022-08-05T04:06:48;5.40;;;1.92;;
57832;SDS011;43667;53.036;6.740;2022-08-05T04:09:15;3.85;;;1.73;;
57832;SDS011;43667;53.036;6.740;2022-08-05T04:11:41;4.57;;;1.92;;
57832;SDS011;43667;53.036;6.740;2022-08-05T04:14:07;6.07;;;2.17;;
57832;SDS011;43667;53.036;6.740;2022-08-05T04:16:34;6.47;;;2.00;;
57832;SDS011;43667;53.036;6.740;2022-08-05T04:19:00;4.90;;;1.80;;
57832;SDS011;43667;53.036;6.740;2022-08-05T04:21:26;5.47;;;2.00;;
57832;SDS011;43667;53.036;6.740;2022-08-05T04:23:52;6.68;;;2.40;;
57832;SDS011;43667;53.036;6.740;2022-08-05T04:26:18;6.30;;;2.40;;
57832;SDS011;43667;53.036;6.740;2022-08-05T04:28:44;6.35;;;1.90;;
57832;SDS011;43667;53.036;6.740;2022-08-05T04:31:10;6.72;;;2.47;;
57832;SDS011;43667;53.036;6.740;2022-08-05T04:33:35;5.80;;;2.28;;
57832;SDS011;43667;53.036;6.740;2022-08-05T04:36:01;5.35;;;2.35;;
57832;SDS011;43667;53.036;6.740;2022-08-05T04:38:27;8.35;;;2.03;;
57832;SDS011;43667;53.036;6.740;2022-08-05T04:40:53;4.82;;;2.30;;
57832;SDS011;43667;53.036;6.740;2022-08-05T04:43:18;6.72;;;2.33;;
57832;SDS011;43667;53.036;6.740;2022-08-05T04:45:44;4.10;;;1.55;;
57832;SDS011;43667;53.036;6.740;2022-08-05T04:48:11;6.00;;;2.10;;
57832;SDS011;43667;53.036;6.740;2022-08-05T04:50:45;8.50;;;2.65;;
57832;SDS011;43667;53.036;6.740;2022-08-05T04:53:13;6.10;;;2.50;;
57832;SDS011;43667;53.036;6.740;2022-08-05T04:55:40;7.32;;;2.65;;
57832;SDS011;43667;53.036;6.740;2022-08-05T04:58:06;7.07;;;2.10;;
57832;SDS011;43667;53.036;6.740;2022-08-05T05:00:34;5.40;;;2.75;;
57832;SDS011;43667;53.036;6.740;2022-08-05T05:03:01;5.78;;;2.70;;
57832;SDS011;43667;53.036;6.740;2022-08-05T05:05:28;6.13;;;2.00;;
57832;SDS011;43667;53.036;6.740;2022-08-05T05:07:55;6.18;;;2.97;;
57832;SDS011;43667;53.036;6.740;2022-08-05T05:10:27;8.18;;;2.55;;
57832;SDS011;43667;53.036;6.740;2022-08-05T05:12:56;5.65;;;2.25;;
57832;SDS011;43667;53.036;6.740;2022-08-05T05:15:22;6.95;;;2.25;;
57832;SDS011;43667;53.036;6.740;2022-08-05T05:17:48;6.38;;;1.95;;
57832;SDS011;43667;53.036;6.740;2022-08-05T05:20:14;5.25;;;2.28;;
57832;SDS011;43667;53.036;6.740;2022-08-05T05:22:40;6.03;;;2.30;;
57832;SDS011;43667;53.036;6.740;2022-08-05T05:25:07;5.03;;;2.25;;
57832;SDS011;43667;53.036;6.740;2022-08-05T05:27:33;4.60;;;2.38;;
57832;SDS011;43667;53.036;6.740;2022-08-05T05:30:00;3.53;;;2.22;;
57832;SDS011;43667;53.036;6.740;2022-08-05T05:32:26;7.72;;;2.65;;
57832;SDS011;43667;53.036;6.740;2022-08-05T05:34:52;5.07;;;2.05;;
57832;SDS011;43667;53.036;6.740;2022-08-05T05:37:18;5.28;;;2.30;;
57832;SDS011;43667;53.036;6.740;2022-08-05T05:39:44;5.28;;;2.22;;
57832;SDS011;43667;53.036;6.740;2022-08-05T05:42:09;6.20;;;2.60;;
57832;SDS011;43667;53.036;6.740;2022-08-05T05:44:35;7.18;;;2.45;;
57832;SDS011;43667;53.036;6.740;2022-08-05T05:47:00;6.20;;;2.50;;
57832;SDS011;43667;53.036;6.740;2022-08-05T05:49:26;6.63;;;2.42;;
57832;SDS011;43667;53.036;6.740;2022-08-05T05:51:53;6.78;;;2.42;;
57832;SDS011;43667;53.036;6.740;2022-08-05T05:54:19;6.50;;;2.30;;
57832;SDS011;43667;53.036;6.740;2022-08-05T05:56:45;8.38;;;2.63;;
57832;SDS011;43667;53.036;6.740;2022-08-05T05:59:10;6.32;;;2.47;;
57832;SDS011;43667;53.036;6.740;2022-08-05T06:01:40;5.90;;;2.20;;
57832;SDS011;43667;53.036;6.740;2022-08-05T06:04:10;5.60;;;2.00;;
57832;SDS011;43667;53.036;6.740;2022-08-05T06:06:37;7.88;;;2.28;;
57832;SDS011;43667;53.036;6.740;2022-08-05T06:09:03;5.95;;;2.10;;
57832;SDS011;43667;53.036;6.740;2022-08-05T06:11:30;4.20;;;1.77;;
57832;SDS011;43667;53.036;6.740;2022-08-05T06:13:56;8.43;;;2.45;;
57832;SDS011;43667;53.036;6.740;2022-08-05T06:16:22;7.05;;;1.80;;
57832;SDS011;43667;53.036;6.740;2022-08-05T06:18:48;6.68;;;2.58;;
57832;SDS011;43667;53.036;6.740;2022-08-05T06:21:14;10.40;;;2.50;;
57832;SDS011;43667;53.036;6.740;2022-08-05T06:23:39;6.53;;;2.17;;
57832;SDS011;43667;53.036;6.740;2022-08-05T06:26:05;6.78;;;1.90;;
57832;SDS011;43667;53.036;6.740;2022-08-05T06:28:30;7.10;;;2.65;;
57832;SDS011;43667;53.036;6.740;2022-08-05T06:30:56;7.35;;;1.98;;
57832;SDS011;43667;53.036;6.740;2022-08-05T06:33:22;6.72;;;2.22;;
57832;SDS011;43667;53.036;6.740;2022-08-05T06:35:47;2.80;;;1.35;;
57832;SDS011;43667;53.036;6.740;2022-08-05T06:38:13;7.13;;;1.40;;
57832;SDS011;43667;53.036;6.740;2022-08-05T06:40:40;4.45;;;1.50;;
57832;SDS011;43667;53.036;6.740;2022-08-05T06:43:06;5.28;;;1.13;;
57832;SDS011;43667;53.036;6.740;2022-08-05T06:45:32;3.97;;;1.23;;
57832;SDS011;43667;53.036;6.740;2022-08-05T06:47:58;4.65;;;1.08;;
57832;SDS011;43667;53.036;6.740;2022-08-05T06:50:31;2.67;;;0.90;;
57832;SDS011;43667;53.036;6.740;2022-08-05T06:52:57;3.80;;;0.90;;
57832;SDS011;43667;53.036;6.740;2022-08-05T06:55:22;3.58;;;0.98;;
57832;SDS011;43667;53.036;6.740;2022-08-05T06:57:48;3.35;;;1.08;;
57832;SDS011;43667;53.036;6.740;2022-08-05T07:00:13;4.78;;;1.00;;
57832;SDS011;43667;53.036;6.740;2022-08-05T07:02:47;4.93;;;1.10;;
57832;SDS011;43667;53.036;6.740;2022-08-05T07:05:13;2.35;;;0.63;;
57832;SDS011;43667;53.036;6.740;2022-08-05T07:07:39;4.85;;;1.00;;
57832;SDS011;43667;53.036;6.740;2022-08-05T07:10:05;3.50;;;0.57;;
57832;SDS011;43667;53.036;6.740;2022-08-05T07:12:32;5.10;;;1.00;;
57832;SDS011;43667;53.036;6.740;2022-08-05T07:15:18;5.35;;;0.80;;
57832;SDS011;43667;53.036;6.740;2022-08-05T07:18:02;2.83;;;0.90;;
57832;SDS011;43667;53.036;6.740;2022-08-05T07:20:28;4.70;;;0.98;;
57832;SDS011;43667;53.036;6.740;2022-08-05T07:22:53;6.25;;;0.88;;
57832;SDS011;43667;53.036;6.740;2022-08-05T07:25:19;2.97;;;1.10;;
57832;SDS011;43667;53.036;6.740;2022-08-05T07:27:45;2.35;;;0.50;;
57832;SDS011;43667;53.036;6.740;2022-08-05T07:30:11;2.50;;;0.50;;
57832;SDS011;43667;53.036;6.740;2022-08-05T07:32:37;3.78;;;0.82;;
57832;SDS011;43667;53.036;6.740;2022-08-05T07:35:06;4.68;;;0.77;;
57832;SDS011;43667;53.036;6.740;2022-08-05T07:37:33;3.65;;;0.60;;
57832;SDS011;43667;53.036;6.740;2022-08-05T07:39:58;1.70;;;0.50;;
57832;SDS011;43667;53.036;6.740;2022-08-05T07:42:24;2.53;;;0.50;;
57832;SDS011;43667;53.036;6.740;2022-08-05T07:44:50;3.90;;;0.65;;
57832;SDS011;43667;53.036;6.740;2022-08-05T07:47:15;2.33;;;0.57;;
57832;SDS011;43667;53.036;6.740;2022-08-05T07:49:41;2.83;;;0.70;;
57832;SDS011;43667;53.036;6.740;2022-08-05T07:52:06;3.30;;;0.63;;
57832;SDS011;43667;53.036;6.740;2022-08-05T07:54:32;2.55;;;0.55;;
57832;SDS011;43667;53.036;6.740;2022-08-05T07:56:58;4.10;;;0.75;;
57832;SDS011;43667;53.036;6.740;2022-08-05T07:59:24;2.25;;;0.40;;
57832;SDS011;43667;53.036;6.740;2022-08-05T08:01:50;3.25;;;0.43;;
57832;SDS011;43667;53.036;6.740;2022-08-05T08:04:16;3.55;;;0.45;;
57832;SDS011;43667;53.036;6.740;2022-08-05T08:06:42;2.15;;;0.50;;
57832;SDS011;43667;53.036;6.740;2022-08-05T08:09:09;2.22;;;0.68;;
57832;SDS011;43667;53.036;6.740;2022-08-05T08:11:35;3.13;;;0.50;;
57832;SDS011;43667;53.036;6.740;2022-08-05T08:14:01;2.08;;;0.47;;
57832;SDS011;43667;53.036;6.740;2022-08-05T08:16:26;3.22;;;0.40;;
57832;SDS011;43667;53.036;6.740;2022-08-05T08:18:52;3.60;;;0.43;;
57832;SDS011;43667;53.036;6.740;2022-08-05T08:21:18;2.03;;;0.40;;
57832;SDS011;43667;53.036;6.740;2022-08-05T08:23:44;4.05;;;0.77;;
57832;SDS011;43667;53.036;6.740;2022-08-05T08:26:09;1.30;;;0.38;;
57832;SDS011;43667;53.036;6.740;2022-08-05T08:28:35;0.82;;;0.28;;
57832;SDS011;43667;53.036;6.740;2022-08-05T08:31:01;1.92;;;0.70;;
57832;SDS011;43667;53.036;6.740;2022-08-05T08:33:26;2.10;;;0.40;;
57832;SDS011;43667;53.036;6.740;2022-08-05T08:35:52;3.22;;;0.50;;
57832;SDS011;43667;53.036;6.740;2022-08-05T08:38:18;1.73;;;0.30;;
57832;SDS011;43667;53.036;6.740;2022-08-05T08:40:43;2.50;;;0.50;;
57832;SDS011;43667;53.036;6.740;2022-08-05T08:43:11;1.65;;;0.52;;
57832;SDS011;43667;53.036;6.740;2022-08-05T08:45:36;3.22;;;0.60;;
57832;SDS011;43667;53.036;6.740;2022-08-05T08:48:02;2.85;;;0.40;;
57832;SDS011;43667;53.036;6.740;2022-08-05T08:50:30;1.58;;;0.40;;
57832;SDS011;43667;53.036;6.740;2022-08-05T08:53:04;3.10;;;0.43;;
57832;SDS011;43667;53.036;6.740;2022-08-05T08:55:31;1.40;;;0.30;;
57832;SDS011;43667;53.036;6.740;2022-08-05T08:57:58;3.03;;;0.40;;
57832;SDS011;43667;53.036;6.740;2022-08-05T09:00:25;1.10;;;0.30;;
57832;SDS011;43667;53.036;6.740;2022-08-05T09:02:51;1.10;;;0.32;;
57832;SDS011;43667;53.036;6.740;2022-08-05T09:05:18;1.70;;;0.30;;
57832;SDS011;43667;53.036;6.740;2022-08-05T09:07:45;1.70;;;0.25;;
57832;SDS011;43667;53.036;6.740;2022-08-05T09:10:11;2.08;;;0.30;;
57832;SDS011;43667;53.036;6.740;2022-08-05T09:12:37;2.22;;;0.30;;
57832;SDS011;43667;53.036;6.740;2022-08-05T09:15:03;3.13;;;0.32;;
57832;SDS011;43667;53.036;6.740;2022-08-05T09:17:30;3.00;;;0.35;;
57832;SDS011;43667;53.036;6.740;2022-08-05T09:19:57;2.67;;;0.40;;
57832;SDS011;43667;53.036;6.740;2022-08-05T09:22:23;2.28;;;0.30;;
57832;SDS011;43667;53.036;6.740;2022-08-05T09:24:56;1.38;;;0.22;;
57832;SDS011;43667;53.036;6.740;2022-08-05T09:27:32;1.13;;;0.20;;
57832;SDS011;43667;53.036;6.740;2022-08-05T09:29:59;3.20;;;0.38;;
57832;SDS011;43667;53.036;6.740;2022-08-05T09:32:36;2.90;;;0.70;;
57832;SDS011;43667;53.036;6.740;2022-08-05T09:35:35;4.85;;;0.65;;
57832;SDS011;43667;53.036;6.740;2022-08-05T09:37:55;3.38;;;0.60;;
57832;SDS011;43667;53.036;6.740;2022-08-05T09:40:28;1.90;;;0.25;;
57832;SDS011;43667;53.036;6.740;2022-08-05T09:43:02;1.70;;;0.30;;
57832;SDS011;43667;53.036;6.740;2022-08-05T09:45:37;4.95;;;0.88;;
57832;SDS011;43667;53.036;6.740;2022-08-05T09:48:18;2.17;;;0.63;;
57832;SDS011;43667;53.036;6.740;2022-08-05T09:51:01;2.45;;;0.43;;
57832;SDS011;43667;53.036;6.740;2022-08-05T09:53:29;1.13;;;0.20;;
57832;SDS011;43667;53.036;6.740;2022-08-05T09:56:11;4.00;;;0.28;;
57832;SDS011;43667;53.036;6.740;2022-08-05T09:58:36;1.70;;;0.22;;
57832;SDS011;43667;53.036;6.740;2022-08-05T10:01:03;1.75;;;0.22;;
57832;SDS011;43667;53.036;6.740;2022-08-05T10:03:30;1.15;;;0.40;;
57832;SDS011;43667;53.036;6.740;2022-08-05T10:06:07;1.70;;;0.20;;
57832;SDS011;43667;53.036;6.740;2022-08-05T10:08:35;0.80;;;0.10;;
57832;SDS011;43667;53.036;6.740;2022-08-05T10:11:02;2.35;;;0.20;;
57832;SDS011;43667;53.036;6.740;2022-08-05T10:13:34;3.13;;;0.30;;
57832;SDS011;43667;53.036;6.740;2022-08-05T10:16:02;2.00;;;0.20;;
57832;SDS011;43667;53.036;6.740;2022-08-05T10:18:29;2.97;;;0.50;;
57832;SDS011;43667;53.036;6.740;2022-08-05T10:21:00;3.65;;;0.22;;
57832;SDS011;43667;53.036;6.740;2022-08-05T10:23:29;2.40;;;0.30;;
57832;SDS011;43667;53.036;6.740;2022-08-05T10:25:58;0.88;;;0.20;;
57832;SDS011;43667;53.036;6.740;2022-08-05T10:28:29;1.55;;;0.10;;
57832;SDS011;43667;53.036;6.740;2022-08-05T10:30:55;3.42;;;0.43;;
57832;SDS011;43667;53.036;6.740;2022-08-05T10:33:23;2.92;;;0.20;;
57832;SDS011;43667;53.036;6.740;2022-08-05T10:35:51;2.45;;;0.30;;
57832;SDS011;43667;53.036;6.740;2022-08-05T10:38:18;1.65;;;0.25;;
57832;SDS011;43667;53.036;6.740;2022-08-05T10:45:54;2.47;;;0.30;;
57832;SDS011;43667;53.036;6.740;2022-08-05T10:48:43;3.25;;;0.22;;
57832;SDS011;43667;53.036;6.740;2022-08-05T10:51:17;2.08;;;0.20;;
57832;SDS011;43667;53.036;6.740;2022-08-05T10:56:18;0.77;;;0.10;;
57832;SDS011;43667;53.036;6.740;2022-08-05T10:58:46;1.05;;;0.10;;
57832;SDS011;43667;53.036;6.740;2022-08-05T11:04:09;0.73;;;0.10;;
57832;SDS011;43667;53.036;6.740;2022-08-05T11:09:37;0.22;;;0.10;;
57832;SDS011;43667;53.036;6.740;2022-08-05T11:15:07;1.85;;;0.10;;
57832;SDS011;43667;53.036;6.740;2022-08-05T11:17:33;0.95;;;0.17;;
57832;SDS011;43667;53.036;6.740;2022-08-05T11:20:03;1.15;;;0.10;;
57832;SDS011;43667;53.036;6.740;2022-08-05T11:22:45;0.95;;;0.10;;
57832;SDS011;43667;53.036;6.740;2022-08-05T11:36:20;0.82;;;0.10;;
57832;SDS011;43667;53.036;6.740;2022-08-05T11:39:07;1.50;;;0.10;;
57832;SDS011;43667;53.036;6.740;2022-08-05T11:41:34;4.95;;;0.20;;
57832;SDS011;43667;53.036;6.740;2022-08-05T11:44:01;0.70;;;0.10;;
57832;SDS011;43667;53.036;6.740;2022-08-05T11:49:03;4.97;;;0.27;;
57832;SDS011;43667;53.036;6.740;2022-08-05T11:51:29;0.80;;;0.10;;
57832;SDS011;43667;53.036;6.740;2022-08-05T11:53:55;0.38;;;0.10;;
57832;SDS011;43667;53.036;6.740;2022-08-05T11:56:21;1.27;;;0.20;;
57832;SDS011;43667;53.036;6.740;2022-08-05T11:58:48;1.05;;;0.10;;
57832;SDS011;43667;53.036;6.740;2022-08-05T12:01:16;2.30;;;0.22;;
57832;SDS011;43667;53.036;6.740;2022-08-05T12:03:48;5.03;;;0.10;;
57832;SDS011;43667;53.036;6.740;2022-08-05T12:06:19;0.93;;;0.10;;
57832;SDS011;43667;53.036;6.740;2022-08-05T12:08:57;0.82;;;0.10;;
57832;SDS011;43667;53.036;6.740;2022-08-05T12:11:24;1.80;;;0.10;;
57832;SDS011;43667;53.036;6.740;2022-08-05T12:13:55;1.02;;;0.17;;
57832;SDS011;43667;53.036;6.740;2022-08-05T12:16:22;0.70;;;0.13;;
57832;SDS011;43667;53.036;6.740;2022-08-05T12:18:49;0.98;;;0.10;;
57832;SDS011;43667;53.036;6.740;2022-08-05T12:21:16;2.45;;;0.20;;
57832;SDS011;43667;53.036;6.740;2022-08-05T12:23:56;2.20;;;0.20;;
57832;SDS011;43667;53.036;6.740;2022-08-05T12:26:24;1.85;;;0.20;;
57832;SDS011;43667;53.036;6.740;2022-08-05T12:29:03;1.70;;;0.20;;
57832;SDS011;43667;53.036;6.740;2022-08-05T12:31:33;3.58;;;0.25;;
57832;SDS011;43667;53.036;6.740;2022-08-05T12:33:59;2.90;;;0.40;;
57832;SDS011;43667;53.036;6.740;2022-08-05T12:36:26;1.60;;;0.28;;
57832;SDS011;43667;53.036;6.740;2022-08-05T12:38:52;1.70;;;0.38;;
57832;SDS011;43667;53.036;6.740;2022-08-05T12:41:19;2.03;;;0.30;;
57832;SDS011;43667;53.036;6.740;2022-08-05T12:43:52;1.88;;;0.30;;
57832;SDS011;43667;53.036;6.740;2022-08-05T12:46:21;2.05;;;0.20;;
57832;SDS011;43667;53.036;6.740;2022-08-05T12:48:55;1.88;;;0.30;;
57832;SDS011;43667;53.036;6.740;2022-08-05T12:51:42;0.82;;;0.10;;
57832;SDS011;43667;53.036;6.740;2022-08-05T12:54:09;2.55;;;0.47;;
57832;SDS011;43667;53.036;6.740;2022-08-05T12:56:39;1.35;;;0.20;;
57832;SDS011;43667;53.036;6.740;2022-08-05T12:59:09;3.17;;;0.20;;
57832;SDS011;43667;53.036;6.740;2022-08-05T13:01:43;5.07;;;0.32;;
57832;SDS011;43667;53.036;6.740;2022-08-05T13:04:16;2.35;;;0.38;;
57832;SDS011;43667;53.036;6.740;2022-08-05T13:06:42;1.70;;;0.30;;
57832;SDS011;43667;53.036;6.740;2022-08-05T13:09:09;1.38;;;0.30;;
57832;SDS011;43667;53.036;6.740;2022-08-05T13:11:37;2.83;;;0.30;;
57832;SDS011;43667;53.036;6.740;2022-08-05T13:14:09;3.60;;;0.20;;
57832;SDS011;43667;53.036;6.740;2022-08-05T13:16:55;1.15;;;0.10;;
57832;SDS011;43667;53.036;6.740;2022-08-05T13:19:25;1.15;;;0.20;;
57832;SDS011;43667;53.036;6.740;2022-08-05T13:21:53;2.28;;;0.22;;
57832;SDS011;43667;53.036;6.740;2022-08-05T13:24:20;4.40;;;0.40;;
57832;SDS011;43667;53.036;6.740;2022-08-05T13:26:50;0.90;;;0.20;;
57832;SDS011;43667;53.036;6.740;2022-08-05T13:29:16;2.20;;;0.32;;
57832;SDS011;43667;53.036;6.740;2022-08-05T13:31:44;2.55;;;0.30;;
57832;SDS011;43667;53.036;6.740;2022-08-05T13:34:10;0.75;;;0.10;;
57832;SDS011;43667;53.036;6.740;2022-08-05T13:36:36;3.17;;;0.30;;
57832;SDS011;43667;53.036;6.740;2022-08-05T13:39:03;2.85;;;0.40;;
57832;SDS011;43667;53.036;6.740;2022-08-05T13:41:30;6.50;;;0.47;;
57832;SDS011;43667;53.036;6.740;2022-08-05T13:43:55;2.55;;;0.77;;
57832;SDS011;43667;53.036;6.740;2022-08-05T13:46:21;8.52;;;3.50;;
57832;SDS011;43667;53.036;6.740;2022-08-05T13:48:48;2.08;;;0.32;;
57832;SDS011;43667;53.036;6.740;2022-08-05T13:51:13;1.35;;;0.10;;
57832;SDS011;43667;53.036;6.740;2022-08-05T13:53:39;1.20;;;0.38;;
57832;SDS011;43667;53.036;6.740;2022-08-05T13:56:07;2.20;;;0.20;;
57832;SDS011;43667;53.036;6.740;2022-08-05T13:58:33;2.47;;;0.20;;
57832;SDS011;43667;53.036;6.740;2022-08-05T14:00:59;2.17;;;0.40;;
57832;SDS011;43667;53.036;6.740;2022-08-05T14:03:25;1.67;;;0.10;;
57832;SDS011;43667;53.036;6.740;2022-08-05T14:05:52;3.08;;;0.20;;
57832;SDS011;43667;53.036;6.740;2022-08-05T14:08:18;1.67;;;0.20;;
57832;SDS011;43667;53.036;6.740;2022-08-05T14:10:44;2.83;;;0.20;;
57832;SDS011;43667;53.036;6.740;2022-08-05T14:13:09;1.25;;;0.13;;
57832;SDS011;43667;53.036;6.740;2022-08-05T14:15:35;5.40;;;0.20;;
57832;SDS011;43667;53.036;6.740;2022-08-05T14:18:01;2.85;;;0.20;;
57832;SDS011;43667;53.036;6.740;2022-08-05T14:20:27;0.75;;;0.08;;
57832;SDS011;43667;53.036;6.740;2022-08-05T14:22:54;1.42;;;0.20;;
57832;SDS011;43667;53.036;6.740;2022-08-05T14:25:21;2.58;;;0.40;;
57832;SDS011;43667;53.036;6.740;2022-08-05T14:27:47;1.40;;;0.40;;
57832;SDS011;43667;53.036;6.740;2022-08-05T14:30:13;2.65;;;0.30;;
57832;SDS011;43667;53.036;6.740;2022-08-05T14:32:39;2.45;;;0.20;;
57832;SDS011;43667;53.036;6.740;2022-08-05T14:35:05;3.15;;;0.68;;
57832;SDS011;43667;53.036;6.740;2022-08-05T14:37:31;1.60;;;0.20;;
57832;SDS011;43667;53.036;6.740;2022-08-05T14:39:57;4.32;;;0.35;;
57832;SDS011;43667;53.036;6.740;2022-08-05T14:42:23;4.82;;;0.40;;
57832;SDS011;43667;53.036;6.740;2022-08-05T14:44:48;2.33;;;0.20;;
57832;SDS011;43667;53.036;6.740;2022-08-05T14:47:14;3.65;;;0.32;;
57832;SDS011;43667;53.036;6.740;2022-08-05T14:49:40;5.60;;;0.60;;
57832;SDS011;43667;53.036;6.740;2022-08-05T14:52:05;4.32;;;0.50;;
57832;SDS011;43667;53.036;6.740;2022-08-05T14:54:31;3.90;;;0.80;;
57832;SDS011;43667;53.036;6.740;2022-08-05T14:56:58;5.93;;;0.98;;
57832;SDS011;43667;53.036;6.740;2022-08-05T14:59:24;5.35;;;0.68;;
57832;SDS011;43667;53.036;6.740;2022-08-05T15:01:50;7.22;;;2.00;;
57832;SDS011;43667;53.036;6.740;2022-08-05T15:04:16;4.57;;;1.52;;
57832;SDS011;43667;53.036;6.740;2022-08-05T15:06:43;5.82;;;0.70;;
57832;SDS011;43667;53.036;6.740;2022-08-05T15:09:08;3.25;;;0.40;;
57832;SDS011;43667;53.036;6.740;2022-08-05T15:11:34;4.95;;;0.68;;
57832;SDS011;43667;53.036;6.740;2022-08-05T15:14:01;10.48;;;1.55;;
57832;SDS011;43667;53.036;6.740;2022-08-05T15:16:27;3.33;;;1.20;;
57832;SDS011;43667;53.036;6.740;2022-08-05T15:18:53;2.10;;;0.40;;
57832;SDS011;43667;53.036;6.740;2022-08-05T15:21:18;9.50;;;4.53;;
57832;SDS011;43667;53.036;6.740;2022-08-05T15:23:44;5.80;;;1.65;;
57832;SDS011;43667;53.036;6.740;2022-08-05T15:26:10;11.82;;;6.00;;
57832;SDS011;43667;53.036;6.740;2022-08-05T15:28:35;3.55;;;1.23;;
57832;SDS011;43667;53.036;6.740;2022-08-05T15:31:02;6.65;;;3.35;;
57832;SDS011;43667;53.036;6.740;2022-08-05T15:33:27;5.00;;;0.60;;
57832;SDS011;43667;53.036;6.740;2022-08-05T15:35:53;8.70;;;2.17;;
57832;SDS011;43667;53.036;6.740;2022-08-05T15:38:19;3.67;;;1.08;;
57832;SDS011;43667;53.036;6.740;2022-08-05T15:40:44;4.18;;;1.17;;
57832;SDS011;43667;53.036;6.740;2022-08-05T15:43:10;3.50;;;1.10;;
57832;SDS011;43667;53.036;6.740;2022-08-05T15:45:35;5.20;;;1.73;;